Rocheport, Missouri
Current Conditions -  °F | °C
As of 6:35 PM on Wednesday 22 Oct 2014 (Local Time) from KVER Reporting Station
Haze Haze  
Wind Chill: 60°   Ceiling: Unl
Heat Index: 60°   Visibility: 2mi
Dew Point: 43°   Wind: 6mph
Humidity: 53%   Direction: 130°SE
Pressure: 30.16"   Gusts: NA
Location:  38.98°N, 92.56°W
Report Text: KVER 222335Z AUTO 13005KT 2SM HZ CLR 16/06 A3016 RMK AO2 T01560060
Loading
Personal Weather Stations






























Interactive Weather Map
Tropical Storm Tracking
New forecast layout! Learn more

10-Day Weather Forecast

Advertisements
Track Severe Weather on mobile